createdAt,value
2022-10-31T00:01:33.253Z,61.16
2022-10-31T00:04:01.123Z,61.21
2022-10-31T00:06:30.551Z,61.18
2022-10-31T00:09:00.245Z,61.18
2022-10-31T00:11:28.338Z,61.20
2022-10-31T00:13:58.468Z,61.14
2022-10-31T00:16:28.762Z,61.14
2022-10-31T00:18:59.958Z,61.17
2022-10-31T00:21:28.428Z,61.36
2022-10-31T00:23:56.190Z,61.43
2022-10-31T00:26:24.108Z,61.35
2022-10-31T00:28:52.252Z,61.32
2022-10-31T00:31:20.303Z,61.14
2022-10-31T00:33:48.232Z,61.04
2022-10-31T00:36:20.637Z,61.01
2022-10-31T00:38:48.939Z,61.17
2022-10-31T00:41:18.225Z,61.18
2022-10-31T00:43:46.465Z,61.36
2022-10-31T00:46:17.325Z,61.41
2022-10-31T00:48:45.198Z,61.43
2022-10-31T00:51:13.480Z,61.38
2022-10-31T00:53:42.997Z,61.42
2022-10-31T00:56:10.903Z,61.47
2022-10-31T00:58:38.846Z,61.38
2022-10-31T01:01:08.180Z,61.39
2022-10-31T01:03:36.889Z,61.43
2022-10-31T01:06:10.340Z,61.49
2022-10-31T01:08:39.574Z,61.44
2022-10-31T01:11:21.095Z,61.46
2022-10-31T01:13:52.383Z,61.41
2022-10-31T01:16:24.481Z,61.38
2022-10-31T01:18:53.069Z,61.19
2022-10-31T01:21:22.286Z,61.31
2022-10-31T01:23:52.096Z,61.41
2022-10-31T01:26:25.843Z,61.61
2022-10-31T01:29:01.201Z,61.52
2022-10-31T01:31:33.323Z,61.60
2022-10-31T01:34:01.678Z,61.56
2022-10-31T01:36:32.232Z,61.70
2022-10-31T01:39:01.141Z,61.77
2022-10-31T01:41:32.773Z,61.73
2022-10-31T01:44:03.745Z,61.68
2022-10-31T01:46:31.475Z,61.74
2022-10-31T01:49:05.130Z,61.86
2022-10-31T01:51:37.885Z,61.89
2022-10-31T01:54:11.780Z,61.88
2022-10-31T01:56:46.870Z,61.96
2022-10-31T01:59:17.137Z,61.82
2022-10-31T02:01:45.002Z,61.94
2022-10-31T02:04:13.206Z,61.93
2022-10-31T02:07:06.806Z,61.88
2022-10-31T02:09:37.462Z,61.91
2022-10-31T02:12:06.881Z,61.97
2022-10-31T02:14:36.340Z,62.01
2022-10-31T02:17:05.081Z,62.00
2022-10-31T02:19:39.266Z,62.12
2022-10-31T02:22:41.205Z,62.10
2022-10-31T02:25:24.382Z,62.13
2022-10-31T02:28:36.472Z,62.02
2022-10-31T02:31:22.727Z,62.09
2022-10-31T02:33:59.375Z,62.02
2022-10-31T02:36:38.474Z,61.95
2022-10-31T02:39:27.880Z,61.89
2022-10-31T02:42:17.865Z,62.01
2022-10-31T02:44:49.698Z,61.91
2022-10-31T02:47:23.391Z,61.84
2022-10-31T02:50:20.680Z,61.79
2022-10-31T02:52:53.160Z,61.90
2022-10-31T02:55:24.067Z,61.94
2022-10-31T02:57:58.413Z,62.06
2022-10-31T03:00:28.154Z,61.93
2022-10-31T03:03:13.777Z,61.82
2022-10-31T03:05:50.763Z,61.73
2022-10-31T03:08:24.945Z,61.78
2022-10-31T03:11:07.617Z,61.82
2022-10-31T03:13:47.919Z,61.80
2022-10-31T03:16:17.676Z,61.88
2022-10-31T03:18:53.259Z,61.78
2022-10-31T03:21:30.517Z,61.80
2022-10-31T03:24:01.795Z,61.78
2022-10-31T03:26:30.736Z,61.86
2022-10-31T03:29:04.296Z,61.97
2022-10-31T03:31:39.995Z,61.84
2022-10-31T03:34:10.054Z,61.84
2022-10-31T03:36:40.732Z,61.68
2022-10-31T03:39:15.554Z,61.82
2022-10-31T03:41:51.008Z,61.93
2022-10-31T03:44:22.545Z,61.90
2022-10-31T03:46:57.925Z,61.97
2022-10-31T03:49:25.822Z,61.98
2022-10-31T03:52:14.718Z,61.96
2022-10-31T03:54:53.417Z,61.88
2022-10-31T03:57:36.965Z,61.86
2022-10-31T04:00:10.174Z,61.80
2022-10-31T04:02:50.616Z,61.71
2022-10-31T04:05:21.032Z,61.71
2022-10-31T04:07:54.503Z,61.65
2022-10-31T04:10:30.074Z,61.57
2022-10-31T04:13:09.368Z,61.59
2022-10-31T04:15:47.195Z,61.69
2022-10-31T04:18:15.445Z,61.64
2022-10-31T04:20:43.391Z,61.60
2022-10-31T04:23:21.111Z,61.65
2022-10-31T04:25:48.937Z,61.67
2022-10-31T04:30:53.341Z,61.81
2022-10-31T04:33:21.567Z,61.76
2022-10-31T04:35:50.602Z,61.66
2022-10-31T04:38:19.777Z,61.47
2022-10-31T04:40:47.617Z,61.51
2022-10-31T04:43:38.698Z,61.47
2022-10-31T04:46:07.632Z,61.57
2022-10-31T04:48:35.578Z,61.78
2022-10-31T04:51:04.172Z,61.85
2022-10-31T04:53:32.006Z,61.91
2022-10-31T04:56:26.084Z,61.78
2022-10-31T04:58:58.841Z,61.71
2022-10-31T05:01:29.122Z,61.77
2022-10-31T05:03:57.214Z,61.61
2022-10-31T05:06:25.238Z,61.73
2022-10-31T05:08:53.441Z,61.77
2022-10-31T05:11:21.330Z,61.75
2022-10-31T05:13:49.266Z,61.58
2022-10-31T05:16:37.112Z,61.76
2022-10-31T05:19:23.651Z,61.70
2022-10-31T05:22:17.581Z,61.81
2022-10-31T05:24:45.387Z,61.72
2022-10-31T05:27:14.895Z,61.87
2022-10-31T05:29:43.631Z,61.80
2022-10-31T05:32:11.450Z,61.86
2022-10-31T05:34:58.196Z,62.09
2022-10-31T05:37:46.552Z,62.11
2022-10-31T05:40:16.553Z,62.03
2022-10-31T05:42:45.210Z,61.95
2022-10-31T05:45:16.136Z,61.85
2022-10-31T05:48:00.610Z,61.80
2022-10-31T05:50:48.485Z,61.89
2022-10-31T05:53:17.537Z,61.99
2022-10-31T05:55:46.388Z,61.93
2022-10-31T05:58:20.630Z,61.82
2022-10-31T06:01:07.447Z,61.84
2022-10-31T06:03:35.510Z,61.71
2022-10-31T06:06:05.219Z,61.71
2022-10-31T06:08:38.365Z,61.54
2022-10-31T06:11:09.022Z,61.44
2022-10-31T06:13:55.420Z,61.49
2022-10-31T06:16:26.490Z,61.39
2022-10-31T06:18:56.037Z,61.52
2022-10-31T06:21:24.029Z,61.55
2022-10-31T06:23:52.631Z,61.49
2022-10-31T06:26:39.344Z,61.44
2022-10-31T06:29:07.172Z,61.46
2022-10-31T06:31:53.560Z,61.46
2022-10-31T06:34:21.448Z,61.33
2022-10-31T06:36:49.502Z,61.29
2022-10-31T06:39:17.820Z,61.25
2022-10-31T06:41:48.770Z,61.10
2022-10-31T06:44:19.354Z,61.08
2022-10-31T06:47:16.305Z,61.07
2022-10-31T06:49:56.301Z,61.14
2022-10-31T06:52:24.629Z,61.07
2022-10-31T06:54:52.636Z,60.88
2022-10-31T06:57:20.644Z,60.83
2022-10-31T06:59:48.752Z,60.80
2022-10-31T07:02:20.257Z,60.70
2022-10-31T07:04:49.727Z,60.75
2022-10-31T07:07:18.834Z,60.85
2022-10-31T07:09:46.624Z,60.31
2022-10-31T07:12:16.827Z,59.46
2022-10-31T07:14:49.997Z,58.69
2022-10-31T07:17:17.941Z,57.68
2022-10-31T07:19:49.716Z,56.50
2022-10-31T07:22:17.979Z,55.66
2022-10-31T07:24:46.064Z,54.77
2022-10-31T07:27:16.707Z,53.80
2022-10-31T07:29:45.209Z,52.70
2022-10-31T07:32:13.128Z,52.03
2022-10-31T07:34:47.483Z,51.23
2022-10-31T07:37:22.028Z,50.45
2022-10-31T07:39:49.795Z,49.69
2022-10-31T07:42:17.715Z,49.58
2022-10-31T07:44:46.444Z,49.05
2022-10-31T07:47:50.687Z,48.52
2022-10-31T07:50:41.670Z,47.98
2022-10-31T07:53:28.564Z,47.95
2022-10-31T07:56:03.232Z,47.28
2022-10-31T07:58:31.409Z,46.91
2022-10-31T08:01:00.421Z,46.22
2022-10-31T08:03:34.190Z,45.75
2022-10-31T08:06:37.070Z,44.67
2022-10-31T08:09:21.037Z,44.03
2022-10-31T08:11:50.570Z,43.68
2022-10-31T08:14:18.430Z,42.92
2022-10-31T08:16:46.709Z,42.92
2022-10-31T08:19:15.404Z,43.41
2022-10-31T08:21:44.805Z,42.94
2022-10-31T08:24:12.932Z,41.86
2022-10-31T08:26:41.712Z,40.94
2022-10-31T08:29:10.539Z,39.81
2022-10-31T08:31:42.635Z,39.29
2022-10-31T08:34:29.819Z,38.72
2022-10-31T08:37:20.856Z,38.04
2022-10-31T08:39:50.865Z,37.40
2022-10-31T08:42:18.538Z,36.94
2022-10-31T08:44:46.525Z,36.78
2022-10-31T08:47:14.650Z,35.82
2022-10-31T08:49:42.455Z,35.45
2022-10-31T08:52:14.469Z,35.11
2022-10-31T08:54:42.893Z,34.13
2022-10-31T08:57:29.380Z,33.49
2022-10-31T08:59:58.699Z,32.85
2022-10-31T09:02:31.356Z,32.86
2022-10-31T09:05:00.986Z,31.89
2022-10-31T09:07:29.335Z,31.34
2022-10-31T09:09:57.477Z,30.84
2022-10-31T09:12:25.367Z,30.51
2022-10-31T09:15:03.075Z,30.12
2022-10-31T09:17:39.521Z,29.60
2022-10-31T09:20:22.478Z,29.30
2022-10-31T09:22:59.742Z,29.40
2022-10-31T09:25:28.610Z,28.61
2022-10-31T09:28:21.439Z,28.01
2022-10-31T09:30:52.858Z,27.91
2022-10-31T09:33:39.314Z,27.52
2022-10-31T09:36:25.735Z,27.60
2022-10-31T09:38:55.860Z,27.66
2022-10-31T09:41:36.692Z,27.25
2022-10-31T09:44:21.620Z,26.56
2022-10-31T09:47:16.255Z,26.17
2022-10-31T09:50:02.873Z,26.03
2022-10-31T09:52:34.441Z,25.94
2022-10-31T09:55:15.520Z,25.99
2022-10-31T09:57:45.297Z,25.22
2022-10-31T10:00:20.657Z,24.84
2022-10-31T10:02:57.434Z,24.45
2022-10-31T10:05:28.286Z,24.52
2022-10-31T10:08:19.428Z,24.47
2022-10-31T10:11:06.944Z,23.85
2022-10-31T10:14:29.178Z,23.65
2022-10-31T10:17:09.734Z,23.43
2022-10-31T10:19:40.367Z,23.18
2022-10-31T10:22:20.513Z,22.89
2022-10-31T10:25:24.543Z,22.68
2022-10-31T10:28:11.089Z,22.59
2022-10-31T10:31:05.075Z,22.75
2022-10-31T10:34:01.029Z,22.36
2022-10-31T10:36:45.794Z,21.93
2022-10-31T10:39:16.829Z,21.70
2022-10-31T10:41:48.064Z,21.33
2022-10-31T10:44:16.755Z,21.28
2022-10-31T10:47:11.250Z,21.23
2022-10-31T10:49:51.061Z,20.95
2022-10-31T10:52:43.145Z,21.03
2022-10-31T10:55:34.039Z,20.49
2022-10-31T10:58:03.737Z,20.46
2022-10-31T11:00:54.795Z,20.59
2022-10-31T11:03:23.029Z,20.59
2022-10-31T11:05:59.686Z,20.56
2022-10-31T11:08:33.407Z,20.15
2022-10-31T11:11:06.043Z,20.00
2022-10-31T11:13:34.588Z,19.80
2022-10-31T11:16:05.118Z,19.66
2022-10-31T11:18:42.687Z,19.62
2022-10-31T11:21:22.930Z,19.34
2022-10-31T11:23:50.787Z,19.69
2022-10-31T11:26:22.633Z,19.48
2022-10-31T11:29:00.662Z,19.29
2022-10-31T11:31:28.908Z,19.31
2022-10-31T11:34:22.931Z,19.26
2022-10-31T11:36:51.183Z,19.18
2022-10-31T11:39:25.463Z,19.14
2022-10-31T11:41:55.535Z,19.14
2022-10-31T11:44:30.205Z,19.15
2022-10-31T11:47:02.231Z,19.10
2022-10-31T11:49:32.519Z,18.90
2022-10-31T11:52:02.714Z,18.76
2022-10-31T11:54:36.296Z,19.12
2022-10-31T11:57:04.215Z,19.16
2022-10-31T11:59:33.715Z,19.51
2022-10-31T12:02:03.012Z,19.34
2022-10-31T12:04:41.556Z,19.20
2022-10-31T12:07:09.846Z,18.97
2022-10-31T12:09:39.336Z,18.59
2022-10-31T12:12:24.386Z,18.45
2022-10-31T12:15:06.237Z,18.42
2022-10-31T12:17:46.227Z,18.70
2022-10-31T12:20:48.360Z,18.78
2022-10-31T12:23:16.278Z,19.08
2022-10-31T12:25:56.954Z,19.14
2022-10-31T12:29:03.907Z,19.11
2022-10-31T12:31:42.329Z,18.91
2022-10-31T12:34:39.002Z,18.91
2022-10-31T12:37:15.970Z,18.55
2022-10-31T12:39:43.728Z,18.41
2022-10-31T12:42:35.378Z,18.78
2022-10-31T12:45:03.775Z,18.62
2022-10-31T12:47:46.947Z,18.64
2022-10-31T12:50:18.450Z,18.40
2022-10-31T12:53:24.738Z,18.16
2022-10-31T12:56:16.817Z,18.23
2022-10-31T12:58:52.863Z,18.45
2022-10-31T13:01:29.359Z,18.49
2022-10-31T13:04:14.433Z,18.52
2022-10-31T13:06:48.269Z,18.35
2022-10-31T13:09:28.658Z,18.85
2022-10-31T13:12:08.883Z,19.05
2022-10-31T13:14:43.067Z,19.11
2022-10-31T13:17:26.520Z,19.27
2022-10-31T13:20:04.671Z,19.25
2022-10-31T13:22:36.751Z,19.57
2022-10-31T13:25:14.901Z,19.65
2022-10-31T13:27:55.231Z,19.61
2022-10-31T13:30:36.251Z,19.80
2022-10-31T13:33:04.429Z,19.77
2022-10-31T13:35:42.982Z,19.93
2022-10-31T13:38:32.045Z,20.04
2022-10-31T13:41:03.102Z,20.29
2022-10-31T13:43:59.083Z,20.47
2022-10-31T13:46:33.047Z,21.39
2022-10-31T13:49:04.926Z,21.85
2022-10-31T13:51:36.190Z,22.34
2022-10-31T13:54:41.178Z,22.17
2022-10-31T13:57:34.023Z,22.16
2022-10-31T14:00:06.356Z,22.57
2022-10-31T14:02:46.067Z,22.44
2022-10-31T14:05:25.151Z,22.43
2022-10-31T14:07:59.365Z,22.56
2022-10-31T14:10:33.740Z,22.58
2022-10-31T14:13:21.954Z,22.99
2022-10-31T14:16:08.488Z,23.37
2022-10-31T14:18:40.304Z,23.37
2022-10-31T14:21:27.610Z,23.96
2022-10-31T14:23:55.816Z,23.94
2022-10-31T14:26:27.427Z,24.54
2022-10-31T14:29:01.023Z,25.11
2022-10-31T14:31:33.187Z,25.83
2022-10-31T14:34:01.845Z,26.58
2022-10-31T14:36:37.430Z,27.26
2022-10-31T14:39:24.805Z,28.09
2022-10-31T14:42:18.841Z,28.94
2022-10-31T14:45:10.230Z,30.13
2022-10-31T14:48:03.826Z,30.99
2022-10-31T14:50:48.009Z,31.57
2022-10-31T14:53:23.699Z,32.33
2022-10-31T14:55:54.998Z,33.09
2022-10-31T14:58:44.022Z,33.51
2022-10-31T15:01:34.608Z,34.19
2022-10-31T15:04:28.944Z,34.82
2022-10-31T15:07:24.401Z,35.37
2022-10-31T15:10:01.142Z,35.66
2022-10-31T15:12:30.183Z,36.31
2022-10-31T15:15:01.957Z,36.86
2022-10-31T15:17:29.802Z,37.30
2022-10-31T15:19:58.510Z,37.53
2022-10-31T15:22:30.108Z,38.05
2022-10-31T15:24:58.525Z,38.39
2022-10-31T15:27:27.440Z,38.79
2022-10-31T15:29:56.939Z,39.19
2022-10-31T15:32:30.257Z,39.40
2022-10-31T15:34:58.305Z,39.81
2022-10-31T15:37:27.761Z,39.88
2022-10-31T15:39:55.722Z,40.33
2022-10-31T15:42:32.318Z,40.58
2022-10-31T15:45:17.096Z,40.89
2022-10-31T15:48:04.371Z,40.96
2022-10-31T15:50:34.439Z,41.27
2022-10-31T15:53:06.943Z,41.32
2022-10-31T15:55:46.550Z,41.54
2022-10-31T15:58:18.380Z,41.75
2022-10-31T16:01:02.494Z,41.93
2022-10-31T16:03:32.556Z,42.14
2022-10-31T16:06:04.822Z,42.44
2022-10-31T16:08:35.877Z,42.68
2022-10-31T16:11:06.882Z,43.03
2022-10-31T16:13:41.509Z,43.27
2022-10-31T16:19:13.837Z,43.56
2022-10-31T16:21:42.890Z,43.71
2022-10-31T16:24:34.043Z,43.83
2022-10-31T16:27:18.876Z,44.18
2022-10-31T16:29:47.946Z,44.36
2022-10-31T16:32:38.499Z,44.52
2022-10-31T16:35:09.459Z,44.78
2022-10-31T16:37:39.859Z,44.98
2022-10-31T16:40:10.205Z,45.17
2022-10-31T16:42:38.205Z,45.27
2022-10-31T16:45:06.786Z,45.44
2022-10-31T16:47:34.902Z,45.55
2022-10-31T16:50:02.803Z,45.88
2022-10-31T16:52:38.250Z,46.07
2022-10-31T16:55:19.937Z,46.29
2022-10-31T16:57:53.505Z,46.48
2022-10-31T17:00:25.111Z,46.57
2022-10-31T17:02:55.302Z,46.80
2022-10-31T17:05:30.498Z,46.97
2022-10-31T17:08:00.362Z,47.24
2022-10-31T17:10:28.696Z,47.42
2022-10-31T17:13:00.115Z,47.48
2022-10-31T17:15:31.354Z,47.63
2022-10-31T17:17:59.729Z,47.73
2022-10-31T17:20:30.384Z,47.89
2022-10-31T17:22:59.558Z,48.16
2022-10-31T17:25:30.165Z,48.23
2022-10-31T17:27:59.150Z,48.31
2022-10-31T17:30:31.828Z,48.45
2022-10-31T17:33:01.316Z,48.72
2022-10-31T17:35:29.362Z,48.81
2022-10-31T17:37:57.476Z,48.95
2022-10-31T17:40:25.230Z,49.06
2022-10-31T17:42:55.977Z,49.03
2022-10-31T17:45:26.211Z,49.39
2022-10-31T17:47:54.631Z,49.57
2022-10-31T17:50:26.837Z,49.59
2022-10-31T17:52:54.713Z,49.57
2022-10-31T17:55:22.691Z,49.74
2022-10-31T17:57:50.766Z,49.79
2022-10-31T18:00:24.942Z,50.01
2022-10-31T18:02:52.785Z,50.23
2022-10-31T18:05:20.577Z,50.58
2022-10-31T18:07:51.248Z,50.68
2022-10-31T18:10:19.134Z,50.90
2022-10-31T18:12:48.843Z,50.93
2022-10-31T18:15:17.872Z,51.05
2022-10-31T18:17:46.657Z,51.23
2022-10-31T18:20:14.562Z,51.25
2022-10-31T18:22:42.345Z,51.18
2022-10-31T18:25:10.240Z,51.38
2022-10-31T18:27:38.119Z,51.49
2022-10-31T18:30:06.729Z,51.51
2022-10-31T18:32:36.485Z,51.50
2022-10-31T18:35:04.531Z,51.71
2022-10-31T18:37:32.662Z,51.77
2022-10-31T18:40:00.570Z,51.88
2022-10-31T18:42:29.569Z,52.00
2022-10-31T18:45:06.659Z,52.04
2022-10-31T18:47:45.037Z,52.24
2022-10-31T18:50:13.060Z,52.20
2022-10-31T18:52:41.142Z,52.17
2022-10-31T18:55:09.320Z,52.23
2022-10-31T18:57:37.891Z,52.11
2022-10-31T19:00:06.936Z,52.36
2022-10-31T19:02:34.905Z,52.58
2022-10-31T19:05:02.693Z,52.77
2022-10-31T19:07:31.208Z,52.59
2022-10-31T19:09:59.326Z,52.75
2022-10-31T19:12:27.313Z,52.83
2022-10-31T19:14:55.585Z,53.19
2022-10-31T19:17:25.445Z,53.33
2022-10-31T19:19:53.404Z,53.57
2022-10-31T19:22:21.509Z,53.84
2022-10-31T19:24:49.573Z,54.02
2022-10-31T19:27:17.614Z,54.25
2022-10-31T19:29:49.055Z,54.26
2022-10-31T19:32:18.282Z,54.30
2022-10-31T19:34:46.443Z,54.46
2022-10-31T19:37:15.151Z,54.40
2022-10-31T19:39:44.413Z,54.29
2022-10-31T19:42:12.617Z,54.33
2022-10-31T19:44:40.824Z,54.24
2022-10-31T19:47:08.726Z,54.36
2022-10-31T19:49:37.558Z,54.40
2022-10-31T19:52:05.758Z,54.50
2022-10-31T19:54:33.805Z,54.67
2022-10-31T19:57:01.833Z,54.96
2022-10-31T19:59:30.744Z,55.14
2022-10-31T20:02:00.356Z,55.22
2022-10-31T20:04:28.362Z,55.14
2022-10-31T20:06:56.508Z,55.05
2022-10-31T20:09:24.447Z,54.97
2022-10-31T20:11:52.441Z,55.17
2022-10-31T20:14:20.396Z,55.29
2022-10-31T20:16:48.496Z,55.26
2022-10-31T20:19:19.979Z,55.27
2022-10-31T20:21:48.382Z,55.16
2022-10-31T20:24:17.502Z,55.21
2022-10-31T20:26:45.615Z,55.19
2022-10-31T20:29:18.318Z,55.26
2022-10-31T20:31:48.049Z,55.37
2022-10-31T20:34:16.231Z,55.44
2022-10-31T20:36:44.514Z,55.51
2022-10-31T20:39:12.679Z,55.48
2022-10-31T20:41:40.667Z,55.57
2022-10-31T20:44:08.802Z,55.63
2022-10-31T20:46:36.697Z,55.85
2022-10-31T20:49:04.764Z,55.77
2022-10-31T20:51:32.827Z,55.60
2022-10-31T20:54:01.258Z,55.60
2022-10-31T20:56:29.792Z,55.86
2022-10-31T20:58:58.636Z,56.08
2022-10-31T21:01:29.759Z,56.06
2022-10-31T21:03:59.694Z,56.02
2022-10-31T21:06:28.204Z,56.11
2022-10-31T21:08:57.061Z,56.21
2022-10-31T21:11:26.189Z,56.17
2022-10-31T21:13:55.677Z,56.15
2022-10-31T21:16:29.528Z,56.14
2022-10-31T21:18:57.758Z,56.29
2022-10-31T21:21:32.155Z,56.32
2022-10-31T21:24:08.314Z,56.59
2022-10-31T21:26:39.404Z,56.66
2022-10-31T21:29:09.729Z,56.99
2022-10-31T21:31:39.175Z,57.37
2022-10-31T21:34:10.523Z,58.26
2022-10-31T21:36:38.812Z,58.38
2022-10-31T22:09:25.077Z,56.99
2022-10-31T22:11:52.807Z,57.18
2022-10-31T22:14:20.905Z,57.22
2022-10-31T22:16:50.883Z,57.23
2022-10-31T22:19:18.783Z,57.12
2022-10-31T22:21:48.854Z,57.14
2022-10-31T22:24:17.135Z,57.22
2022-10-31T22:26:45.294Z,57.08
2022-10-31T22:29:16.447Z,57.08
2022-10-31T22:31:53.385Z,57.12
2022-10-31T22:34:25.089Z,57.19
2022-10-31T22:36:55.466Z,57.10
2022-10-31T22:39:24.518Z,57.12
2022-10-31T22:41:53.433Z,57.18
2022-10-31T22:44:21.519Z,57.16
2022-10-31T22:46:49.396Z,57.24
2022-10-31T22:49:17.254Z,57.13
2022-10-31T22:51:45.027Z,57.18
2022-10-31T22:54:19.127Z,57.24
2022-10-31T22:56:47.241Z,57.23
2022-10-31T22:59:16.719Z,57.32
2022-10-31T23:01:46.000Z,57.74
2022-10-31T23:04:16.729Z,58.30
2022-10-31T23:06:44.997Z,58.65
2022-10-31T23:09:15.932Z,58.77
2022-10-31T23:11:44.248Z,59.22
2022-10-31T23:14:18.730Z,59.83
2022-10-31T23:16:49.725Z,60.16
2022-10-31T23:19:29.799Z,60.16
2022-10-31T23:22:04.113Z,60.50
2022-10-31T23:24:38.131Z,60.61
2022-10-31T23:27:09.517Z,60.56
2022-10-31T23:29:49.519Z,60.91
2022-10-31T23:32:19.425Z,60.96
2022-10-31T23:34:49.833Z,60.99
2022-10-31T23:37:19.525Z,61.36
2022-10-31T23:39:47.687Z,61.48
2022-10-31T23:42:16.009Z,61.72
2022-10-31T23:44:43.829Z,61.76
2022-10-31T23:47:12.799Z,61.81
2022-10-31T23:49:40.694Z,62.05
2022-10-31T23:52:08.805Z,62.11
2022-10-31T23:54:36.631Z,62.22
2022-10-31T23:57:04.545Z,62.30
2022-10-31T23:59:33.108Z,62.30
